Time;durP1;ratioP1;P1;durP2;ratioP2;P2;SDS_P1;SDS_P2;PMS_P1;PMS_P2;Temp;Humidity;BMP_temperature;BMP_pressure;BME280_temperature;BME280_humidity;BME280_pressure;Samples;Min_cycle;Max_cycle;Signal;HPM_P1;HPM_P2
2022/10/27 19:22:30;;;;;;;4.90;1.65;;;22.40;1.00;;;23.35;59.66;100246.84;5022340;27;2242077;-84
2022/10/27 19:29:07;;;;;;;13.80;7.68;;;22.00;1.00;;;20.44;58.83;100216.94;5043528;27;102867;-76
2022/10/27 19:31:37;;;;;;;14.68;9.02;;;18.30;1.00;;;17.54;70.52;100211.28;5037938;27;113634;-75
2022/10/27 19:34:08;;;;;;;14.20;9.40;;;15.50;1.00;;;16.00;77.54;100206.47;5036171;27;130597;-74
2022/10/27 19:36:37;;;;;;;13.88;8.75;;;13.90;1.00;;;14.73;86.32;100205.06;5033105;27;129937;-74
2022/10/27 19:39:08;;;;;;;14.93;10.10;;;12.90;1.00;;;13.81;93.68;100203.13;5052629;27;118963;-76
2022/10/27 19:41:38;;;;;;;18.98;10.88;;;12.20;9.30;;;13.81;93.68;100203.13;5036905;27;115759;-75
2022/10/27 19:44:10;;;;;;;16.52;10.73;;;11.80;54.90;;;13.81;93.68;100203.13;5036829;27;129530;-75
2022/10/27 19:46:39;;;;;;;20.80;11.20;;;11.50;95.70;;;12.41;100.00;100196.78;5032674;27;129219;-75
2022/10/27 19:49:12;;;;;;;22.83;11.70;;;11.20;99.90;;;12.17;100.00;100197.84;5038806;27;118412;-75
2022/10/27 19:51:41;;;;;;;24.77;11.75;;;11.10;99.90;;;-147.47;100.00;69272.31;5038754;27;115956;-73
2022/10/27 19:54:19;;;;;;;21.58;12.13;;;10.90;99.90;;;-147.47;100.00;69272.31;5039579;27;130590;-73
2022/10/27 19:56:48;;;;;;;21.40;12.68;;;10.80;99.90;;;-147.46;100.00;100197.84;5037312;27;129971;-74
2022/10/27 19:59:19;;;;;;;24.67;14.35;;;10.70;99.90;;;;;;5037701;27;118505;-74
2022/10/27 20:01:49;;;;;;;23.20;13.25;;;10.70;99.90;;;-147.47;100.00;69272.31;5040016;27;114341;-75
2022/10/27 20:04:19;;;;;;;25.58;12.98;;;10.80;99.90;;;-147.47;100.00;69272.31;5037139;27;129935;-73
2022/10/27 20:06:48;;;;;;;26.75;14.88;;;10.70;99.90;;;-147.47;100.00;69272.31;5036140;27;129488;-74
2022/10/27 20:09:18;;;;;;;22.85;13.35;;;10.70;99.90;;;-147.47;100.00;69272.31;5037477;27;119265;-74
2022/10/27 20:11:47;;;;;;;23.95;13.55;;;10.70;99.90;;;-147.47;100.00;69272.31;5039564;27;115241;-78
2022/10/27 20:14:18;;;;;;;24.77;14.48;;;10.60;99.90;;;-147.47;100.00;69272.31;5041163;27;130110;-77
2022/10/27 20:16:47;;;;;;;28.48;14.43;;;10.60;99.90;;;-147.47;100.00;69272.31;5041447;27;129657;-73
2022/10/27 20:19:18;;;;;;;26.98;14.02;;;10.60;99.90;;;-147.47;100.00;69272.31;5042220;27;118763;-76
2022/10/27 20:21:47;;;;;;;28.92;15.65;;;10.50;99.90;;;-147.47;100.00;69272.31;5040377;27;115866;-75
2022/10/27 20:24:19;;;;;;;26.50;15.10;;;10.50;99.90;;;-147.47;100.00;69272.31;5039522;27;129150;-74
2022/10/27 20:26:49;;;;;;;26.95;15.20;;;10.50;99.90;;;-147.47;100.00;69272.31;5037597;27;129650;-74
2022/10/27 20:29:19;;;;;;;27.40;15.85;;;10.60;99.90;;;-147.47;100.00;69272.31;5035918;27;118596;-73
2022/10/27 20:31:48;;;;;;;29.67;15.80;;;10.50;99.90;;;-147.47;100.00;69272.31;5037632;27;115790;-74
2022/10/27 20:34:17;;;;;;;29.48;16.05;;;10.40;99.90;;;-147.47;100.00;69272.31;5036959;27;130347;-73
2022/10/27 20:36:45;;;;;;;29.67;15.95;;;10.40;99.90;;;-147.47;100.00;69272.31;5038239;27;129517;-73
2022/10/27 20:39:14;;;;;;;32.30;17.33;;;10.30;99.90;;;-147.47;100.00;69272.31;5046817;27;119307;-73
2022/10/27 20:41:43;;;;;;;31.05;16.83;;;10.30;99.90;;;-147.47;100.00;69272.31;5024360;28;115742;-74
2022/10/27 20:44:11;;;;;;;31.30;17.30;;;10.30;99.90;;;-147.47;100.00;69272.31;5023204;28;130102;-75
2022/10/27 20:46:41;;;;;;;30.15;16.17;;;10.30;99.90;;;-147.47;100.00;69272.31;5023326;28;130019;-74
2022/10/27 20:49:10;;;;;;;29.58;16.73;;;10.30;99.90;;;-147.47;100.00;69272.31;5023624;28;118770;-75
2022/10/27 20:51:38;;;;;;;31.42;15.73;;;10.20;99.90;;;-147.47;100.00;69272.31;5023759;28;116098;-75
2022/10/27 20:54:07;;;;;;;27.80;15.98;;;10.10;99.90;;;-147.47;100.00;69272.31;5023736;28;129962;-75
2022/10/27 20:56:36;;;;;;;29.98;18.10;;;10.00;99.90;;;-147.47;100.00;69272.31;5023333;28;129565;-73
2022/10/27 20:59:05;;;;;;;29.20;16.13;;;9.90;99.90;;;-147.47;100.00;69272.31;5023514;28;118886;-73
2022/10/27 21:01:36;;;;;;;31.58;17.20;;;9.70;99.90;;;-147.47;100.00;69272.31;5023394;28;115808;-71
2022/10/27 21:04:08;;;;;;;31.17;17.63;;;9.60;99.90;;;-147.47;100.00;69272.31;5022962;28;129842;-73
2022/10/27 21:06:40;;;;;;;29.92;17.30;;;9.60;99.90;;;-147.47;100.00;69272.31;5023046;28;129432;-76
2022/10/27 21:09:11;;;;;;;37.53;18.10;;;9.60;99.90;;;-147.47;100.00;69272.31;5025011;28;117868;-75
2022/10/27 21:11:41;;;;;;;36.70;18.85;;;9.50;99.90;;;-147.47;100.00;69272.31;5023441;28;115779;-75
2022/10/27 21:14:11;;;;;;;33.80;17.85;;;9.50;99.90;;;-147.47;100.00;69272.31;5022922;28;130038;-74
2022/10/27 21:16:40;;;;;;;35.38;18.65;;;9.40;99.90;;;-147.47;100.00;69272.31;5022617;28;129510;-73
2022/10/27 21:19:10;;;;;;;37.67;18.00;;;9.30;99.90;;;-147.47;100.00;69272.31;5023337;28;118781;-74
2022/10/27 21:21:39;;;;;;;33.10;18.48;;;9.20;99.90;;;-147.47;100.00;69272.31;5023130;28;115865;-74
2022/10/27 21:24:08;;;;;;;30.00;18.08;;;9.10;99.90;;;-147.47;100.00;69272.31;5022374;28;130624;-73
2022/10/27 21:26:36;;;;;;;34.55;17.17;;;9.10;99.90;;;-147.47;100.00;69272.31;5022582;28;129602;-72
2022/10/27 21:29:05;;;;;;;32.55;17.08;;;9.10;99.90;;;-147.47;100.00;69272.31;5022846;28;119212;-74
2022/10/27 21:31:33;;;;;;;35.25;17.70;;;9.00;99.90;;;-147.47;100.00;69272.31;5022821;28;116011;-72
2022/10/27 21:34:04;;;;;;;35.20;18.20;;;9.00;99.90;;;-147.47;100.00;69272.31;5024451;28;130109;-73
2022/10/27 21:36:35;;;;;;;34.05;19.23;;;8.90;99.90;;;-147.47;100.00;69272.31;5022652;28;129850;-73
2022/10/27 21:39:07;;;;;;;46.08;18.85;;;8.90;99.90;;;-147.47;100.00;69272.31;5022888;28;118764;-72
2022/10/27 21:41:36;;;;;;;37.05;18.60;;;8.90;99.90;;;-147.47;100.00;69272.31;5021960;28;116421;-74
2022/10/27 21:44:04;;;;;;;45.25;20.42;;;8.80;99.90;;;-147.47;100.00;69272.31;5022406;28;129903;-76
2022/10/27 21:46:33;;;;;;;39.05;21.10;;;8.80;99.90;;;-147.47;100.00;69272.31;5022399;28;129479;-74
2022/10/27 21:49:02;;;;;;;35.92;19.10;;;8.80;99.90;;;-147.47;100.00;69272.31;5022477;28;119591;-74
2022/10/27 21:51:33;;;;;;;33.75;19.40;;;8.80;99.90;;;-147.47;100.00;69272.31;5021443;28;116078;-75
2022/10/27 21:54:03;;;;;;;47.88;19.25;;;8.70;99.90;;;-147.47;100.00;69272.31;5023838;28;129681;-76
2022/10/27 21:56:34;;;;;;;33.22;18.92;;;8.60;99.90;;;-147.47;100.00;69272.31;5024149;28;128559;-74
2022/10/27 21:59:04;;;;;;;39.10;17.73;;;8.50;99.90;;;-147.47;100.00;69272.31;5022476;28;119446;-74
2022/10/27 22:01:33;;;;;;;36.05;19.65;;;8.50;99.90;;;-147.47;100.00;69272.31;5022814;28;115597;-75
2022/10/27 22:04:02;;;;;;;35.25;18.33;;;8.40;99.90;;;-147.47;100.00;69272.31;5024082;28;128574;-75
2022/10/27 22:06:34;;;;;;;34.40;18.05;;;8.30;99.90;;;-147.47;100.00;69272.31;5021767;28;129989;-74
2022/10/27 22:09:03;;;;;;;38.28;18.40;;;8.10;99.90;;;-147.47;100.00;69272.31;5022344;28;118789;-74
2022/10/27 22:11:35;;;;;;;35.15;17.00;;;8.10;99.90;;;-147.47;100.00;69272.31;5022467;28;115687;-74
2022/10/27 22:14:04;;;;;;;40.50;19.63;;;7.90;99.90;;;-147.47;100.00;69272.31;5022211;28;130595;-73
2022/10/27 22:16:34;;;;;;;37.08;18.70;;;8.00;99.90;;;-147.47;100.00;69272.31;5022233;28;129518;-74
2022/10/27 22:19:06;;;;;;;37.28;18.73;;;7.80;99.90;;;-147.47;100.00;69272.31;5022479;28;118714;-74
2022/10/27 22:21:38;;;;;;;38.30;19.23;;;7.70;99.90;;;-147.47;100.00;69272.31;5022433;28;116148;-74
2022/10/27 22:24:07;;;;;;;39.85;20.83;;;7.70;99.90;;;-147.47;100.00;69272.31;5037420;27;130480;-74
2022/10/27 22:26:39;;;;;;;38.72;18.65;;;7.60;99.90;;;-147.47;100.00;69272.31;5021728;28;129651;-74
2022/10/27 22:29:09;;;;;;;47.60;21.17;;;7.50;99.90;;;-147.47;100.00;69272.31;5021910;28;118791;-75
2022/10/27 22:31:37;;;;;;;36.50;19.70;;;7.40;99.90;;;-147.47;100.00;69272.31;5040763;27;115589;-74
2022/10/27 22:34:06;;;;;;;38.72;19.27;;;7.40;99.90;;;-147.47;100.00;69272.31;5021686;28;130624;-75
2022/10/27 22:36:36;;;;;;;41.67;20.35;;;7.30;99.90;;;-147.47;100.00;69272.31;5021474;28;129550;-73
2022/10/27 22:39:05;;;;;;;36.90;18.27;;;7.20;99.90;;;-147.47;100.00;69272.31;5021930;28;118862;-74
2022/10/27 22:41:44;;;;;;;40.53;19.10;;;7.20;99.90;;;-147.47;100.00;69272.31;5022376;28;115454;-74
2022/10/27 22:44:13;;;;;;;40.90;20.67;;;7.10;99.90;;;-147.47;100.00;69272.31;5021601;28;129882;-74
2022/10/27 22:46:41;;;;;;;39.92;20.90;;;7.00;99.90;;;-147.47;100.00;69272.31;5021490;28;130081;-74
2022/10/27 22:49:10;;;;;;;48.17;22.10;;;7.00;99.90;;;-147.47;100.00;69272.31;5021577;28;119298;-75
2022/10/27 22:51:40;;;;;;;41.70;19.13;;;7.00;99.90;;;-147.47;100.00;69272.31;5021863;28;115860;-74
2022/10/27 22:54:09;;;;;;;39.05;19.48;;;7.00;99.90;;;-147.47;100.00;69272.31;5023184;28;129764;-74
2022/10/27 22:56:37;;;;;;;45.42;21.02;;;7.10;99.90;;;-147.47;100.00;69272.31;5021233;28;129977;-75
2022/10/27 22:59:08;;;;;;;38.45;20.10;;;7.10;99.90;;;-147.47;100.00;69272.31;5021960;28;118625;-74
2022/10/27 23:01:39;;;;;;;49.47;22.90;;;7.20;99.90;;;-147.47;100.00;69272.31;5021759;27;115875;-75
2022/10/27 23:04:12;;;;;;;42.17;21.17;;;7.40;99.90;;;-147.47;100.00;69272.31;5021226;28;130300;-74
2022/10/27 23:06:43;;;;;;;38.80;20.10;;;7.40;99.90;;;-147.47;100.00;69272.31;5021173;28;129701;-74
2022/10/27 23:09:14;;;;;;;44.58;20.83;;;7.50;99.90;;;-147.47;100.00;69272.31;5037684;28;117929;-76
2022/10/27 23:11:43;;;;;;;46.78;23.27;;;7.60;99.90;;;-147.47;100.00;69272.31;5114639;28;31833;-74
2022/10/27 23:14:14;;;;;;;41.92;21.77;;;7.80;99.90;;;-147.47;100.00;69272.31;5114675;28;33408;-74
2022/10/27 23:16:43;;;;;;;44.47;22.30;;;7.90;99.90;;;-147.47;100.00;69272.31;5115168;28;31919;-75
2022/10/27 23:19:13;;;;;;;44.88;21.38;;;8.00;99.90;;;-147.47;100.00;69272.31;5131916;27;31872;-74
2022/10/27 23:21:43;;;;;;;42.20;21.65;;;8.10;99.90;;;-147.47;100.00;69272.31;5117114;28;31394;-75
2022/10/27 23:24:14;;;;;;;47.25;21.88;;;8.20;1.00;;;-147.47;100.00;69272.31;5114487;28;32347;-75
2022/10/27 23:26:42;;;;;;;45.10;21.73;;;8.20;1.00;;;-147.47;100.00;69272.31;5115091;28;31914;-74
2022/10/27 23:29:13;;;;;;;48.88;22.15;;;8.30;1.00;;;-147.47;100.00;69272.31;5114621;28;32582;-75
2022/10/27 23:31:42;;;;;;;43.17;21.75;;;8.30;1.00;;;-147.47;100.00;69272.31;5114336;28;31728;-73
2022/10/27 23:34:12;;;;;;;47.38;22.75;;;8.40;1.00;;;-147.47;100.00;69272.31;5114344;28;32678;-74
2022/10/27 23:36:44;;;;;;;46.97;20.40;;;8.40;1.00;;;-147.47;100.00;69272.31;5114820;28;31871;-74
2022/10/27 23:39:13;;;;;;;50.80;22.95;;;8.40;1.00;;;-147.47;100.00;69272.31;5116528;28;31915;-75
2022/10/27 23:41:41;;;;;;;44.58;22.00;;;8.40;1.00;;;-147.47;100.00;69272.31;5114767;28;32679;-74
2022/10/27 23:44:10;;;;;;;49.80;22.00;;;8.50;1.00;;;-147.47;100.00;69272.31;5114116;28;32513;-75
2022/10/27 23:46:38;;;;;;;43.80;20.45;;;8.50;1.00;;;-147.47;100.00;69272.31;5114550;28;31789;-75
2022/10/27 23:49:07;;;;;;;46.92;21.67;;;8.50;1.00;;;-147.47;100.00;69272.31;5114152;28;31934;-75
2022/10/27 23:51:36;;;;;;;46.25;22.13;;;8.50;1.00;;;-147.47;100.00;69272.31;5114077;28;32269;-75
2022/10/27 23:54:06;;;;;;;43.05;20.48;;;8.60;1.00;;;-147.47;100.00;69272.31;5114537;28;32378;-74
2022/10/27 23:56:34;;;;;;;40.05;21.05;;;8.60;1.00;;;-147.47;100.00;69272.31;5114414;28;31980;-74
2022/10/27 23:59:03;;;;;;;43.33;20.80;;;8.60;1.00;;;-147.47;100.00;69272.31;5118537;28;30844;-75
